New Minden, Illinois
Current Conditions -  °F | °C
As of 12:35 AM on Wednesday 28 Jan 2015 (Local Time) from KSAR Reporting Station
Clear Clear  
Wind Chill: 28°   Ceiling: Unl
Heat Index: 28°   Visibility: 10mi
Dew Point: 26°   Wind: 0mph
Humidity: 94%   Direction: NA
Pressure: 30.27"   Gusts: NA
Location:  38.318°N, 89.3879°W
Report Text: KSAR 280635Z AUTO 00000KT 10SM CLR M02/M03 A3027 RMK AO2 T10241033
Loading
Personal Weather Stations






























Interactive Weather Map New forecast layout! Learn more

10-Day Weather Forecast

Advertisements
Track Severe Weather on mobile